createdAt,value
2023-04-16T00:01:34.860Z,101744.66
2023-04-16T00:04:01.703Z,101747.28
2023-04-16T00:06:28.687Z,101745.53
2023-04-16T00:08:55.238Z,101745.47
2023-04-16T00:11:22.128Z,101744.63
2023-04-16T00:13:48.962Z,101749.91
2023-04-16T00:16:15.529Z,101754.28
2023-04-16T00:18:41.913Z,101748.19
2023-04-16T00:21:08.292Z,101747.31
2023-04-16T00:23:34.678Z,101748.19
2023-04-16T00:26:01.162Z,101749.19
2023-04-16T00:28:27.632Z,101749.13
2023-04-16T00:30:54.811Z,101740.38
2023-04-16T00:33:21.449Z,101744.72
2023-04-16T00:35:48.534Z,101745.59
2023-04-16T00:38:15.017Z,101742.13
2023-04-16T00:40:41.393Z,101744.75
2023-04-16T00:43:07.764Z,101749.94
2023-04-16T00:45:34.472Z,101741.28
2023-04-16T00:48:01.495Z,101750.00
2023-04-16T00:50:28.216Z,101750.00
2023-04-16T00:52:55.570Z,101746.53
2023-04-16T00:55:22.103Z,101745.72
2023-04-16T00:57:48.522Z,101739.66
2023-04-16T01:00:15.006Z,101745.69
2023-04-16T01:02:41.816Z,101743.97
2023-04-16T01:05:08.497Z,101743.03
2023-04-16T01:07:35.055Z,101745.63
2023-04-16T01:10:01.451Z,101745.59
2023-04-16T01:12:27.863Z,101749.06
2023-04-16T01:14:54.391Z,101743.84
2023-04-16T01:17:20.771Z,101748.16
2023-04-16T01:19:47.139Z,101753.38
2023-04-16T01:22:17.569Z,101748.13
2023-04-16T01:24:45.085Z,101749.03
2023-04-16T01:27:11.446Z,101750.75
2023-04-16T01:29:37.867Z,101760.31
2023-04-16T01:32:04.280Z,101761.19
2023-04-16T01:34:33.946Z,101758.59
2023-04-16T01:37:00.388Z,101759.47
2023-04-16T01:39:28.660Z,101763.75
2023-04-16T01:41:57.084Z,101766.38
2023-04-16T01:44:23.605Z,101775.94
2023-04-16T01:46:50.147Z,101780.28
2023-04-16T01:49:16.716Z,101775.94
2023-04-16T01:51:43.788Z,101773.28
2023-04-16T01:54:10.170Z,101777.63
2023-04-16T01:56:36.534Z,101781.97
2023-04-16T01:59:03.157Z,101781.09
2023-04-16T02:01:35.850Z,101781.09
2023-04-16T02:04:03.153Z,101784.63
2023-04-16T02:06:30.481Z,101797.69
2023-04-16T02:08:56.874Z,101789.91
2023-04-16T02:11:23.965Z,101785.53
2023-04-16T02:13:50.751Z,101788.09
2023-04-16T02:16:18.252Z,101800.25
2023-04-16T02:19:04.503Z,101802.84
2023-04-16T02:21:34.296Z,101802.00
2023-04-16T02:24:00.795Z,101797.63
2023-04-16T02:26:29.889Z,101807.22
2023-04-16T02:29:01.851Z,101798.50
2023-04-16T02:31:36.612Z,101805.47
2023-04-16T02:34:03.790Z,101800.28
2023-04-16T02:36:31.417Z,101802.94
2023-04-16T02:38:58.568Z,101796.81
2023-04-16T02:41:24.983Z,101797.69
2023-04-16T02:43:51.417Z,101802.88
2023-04-16T02:46:17.816Z,101802.03
2023-04-16T02:48:44.216Z,101805.53
2023-04-16T02:51:10.979Z,101806.38
2023-04-16T02:53:37.413Z,101808.16
2023-04-16T02:56:03.916Z,101806.38
2023-04-16T02:58:30.873Z,101808.97
2023-04-16T03:00:57.290Z,101812.38
2023-04-16T03:03:23.947Z,101809.78
2023-04-16T03:05:50.968Z,101814.13
2023-04-16T03:08:17.366Z,101812.38
2023-04-16T03:10:43.878Z,101819.31
2023-04-16T03:13:10.257Z,101814.97
2023-04-16T03:15:36.698Z,101813.19
2023-04-16T03:18:03.188Z,101813.19
2023-04-16T03:20:29.672Z,101820.19
2023-04-16T03:22:57.144Z,101817.56
2023-04-16T03:25:23.513Z,101820.19
2023-04-16T03:27:51.005Z,101815.81
2023-04-16T03:30:17.470Z,101822.81
2023-04-16T03:32:43.927Z,101821.94
2023-04-16T03:35:11.230Z,101827.13
2023-04-16T03:37:37.812Z,101817.56
2023-04-16T03:40:06.824Z,101822.75
2023-04-16T03:42:33.520Z,101829.72
2023-04-16T03:45:00.646Z,101830.56
2023-04-16T03:47:28.056Z,101828.81
2023-04-16T03:49:58.228Z,101831.44
2023-04-16T03:52:24.648Z,101827.94
2023-04-16T03:54:52.251Z,101830.56
2023-04-16T03:57:25.802Z,101825.34
2023-04-16T03:59:55.654Z,101831.41
2023-04-16T04:02:23.240Z,101821.84
2023-04-16T04:04:49.858Z,101831.41
2023-04-16T04:07:17.093Z,101830.53
2023-04-16T04:09:43.515Z,101825.31
2023-04-16T04:12:10.133Z,101828.78
2023-04-16T04:14:39.827Z,101828.81
2023-04-16T04:17:07.971Z,101827.06
2023-04-16T04:19:34.567Z,101830.56
2023-04-16T04:22:02.082Z,101831.41
2023-04-16T04:24:28.626Z,101834.00
2023-04-16T04:26:55.162Z,101842.69
2023-04-16T04:29:21.854Z,101846.16
2023-04-16T04:31:49.365Z,101848.78
2023-04-16T04:34:15.955Z,101853.16
2023-04-16T04:36:42.450Z,101850.50
2023-04-16T04:39:09.534Z,101850.53
2023-04-16T04:41:36.325Z,101852.25
2023-04-16T04:44:03.542Z,101860.06
2023-04-16T04:46:30.103Z,101854.88
2023-04-16T04:48:56.502Z,101854.00
2023-04-16T04:51:22.906Z,101851.38
2023-04-16T04:53:49.286Z,101855.72
2023-04-16T04:56:15.755Z,101852.25
2023-04-16T04:58:42.385Z,101855.72
2023-04-16T05:01:08.825Z,101856.59
2023-04-16T05:03:35.481Z,101860.97
2023-04-16T05:06:02.044Z,101858.34
2023-04-16T05:08:28.455Z,101863.53
2023-04-16T05:10:54.891Z,101860.91
2023-04-16T05:13:21.569Z,101860.03
2023-04-16T05:15:47.972Z,101861.78
2023-04-16T05:18:14.750Z,101866.13
2023-04-16T05:20:41.118Z,101860.91
2023-04-16T05:23:07.589Z,101873.97
2023-04-16T05:25:33.986Z,101873.97
2023-04-16T05:28:00.441Z,101875.72
2023-04-16T05:30:26.804Z,101878.31
2023-04-16T05:32:53.264Z,101874.78
2023-04-16T05:35:19.711Z,101884.34
2023-04-16T05:37:46.115Z,101887.84
2023-04-16T05:40:14.044Z,101891.34
2023-04-16T05:42:40.478Z,101893.97
2023-04-16T05:45:07.317Z,101896.56
2023-04-16T05:47:36.752Z,101899.19
2023-04-16T05:50:03.155Z,101903.53
2023-04-16T05:52:29.514Z,101907.94
2023-04-16T05:54:55.989Z,101910.66
2023-04-16T05:57:22.405Z,101908.97
2023-04-16T05:59:48.762Z,101914.19
2023-04-16T06:02:15.397Z,101913.28
2023-04-16T06:04:41.847Z,101907.13
2023-04-16T06:07:08.209Z,101914.94
2023-04-16T06:09:34.571Z,101913.19
2023-04-16T06:12:01.209Z,101914.06
2023-04-16T06:14:27.617Z,101920.09
2023-04-16T06:16:53.991Z,101914.03
2023-04-16T06:19:20.500Z,101923.56
2023-04-16T06:21:46.890Z,101921.81
2023-04-16T06:24:13.315Z,101930.50
2023-04-16T06:26:39.793Z,101927.00
2023-04-16T06:29:06.230Z,101926.94
2023-04-16T06:31:32.747Z,101929.50
2023-04-16T06:33:59.142Z,101934.69
2023-04-16T06:36:26.911Z,101930.31
2023-04-16T06:38:53.329Z,101935.53
2023-04-16T06:41:19.706Z,101941.59
2023-04-16T06:43:46.109Z,101940.75
2023-04-16T06:46:12.502Z,101943.31
2023-04-16T06:48:39.935Z,101942.44
2023-04-16T06:51:06.344Z,101942.44
2023-04-16T06:53:33.260Z,101941.63
2023-04-16T06:55:59.617Z,101946.94
2023-04-16T06:58:25.993Z,101947.72
2023-04-16T07:00:52.418Z,101945.19
2023-04-16T07:03:18.890Z,101954.81
2023-04-16T07:05:45.650Z,101953.84
2023-04-16T07:08:12.029Z,101953.81
2023-04-16T07:10:40.317Z,101955.50
2023-04-16T07:13:08.729Z,101952.00
2023-04-16T07:15:35.508Z,101954.72
2023-04-16T07:18:01.954Z,101958.25
2023-04-16T07:20:28.544Z,101966.94
2023-04-16T07:22:54.981Z,101967.84
2023-04-16T07:25:21.530Z,101966.00
2023-04-16T07:27:47.999Z,101971.09
2023-04-16T07:30:14.455Z,101972.16
2023-04-16T07:32:40.884Z,101983.56
2023-04-16T07:35:07.533Z,101980.13
2023-04-16T07:37:33.891Z,101983.69
2023-04-16T07:40:00.690Z,101985.38
2023-04-16T07:42:27.936Z,101980.94
2023-04-16T07:44:54.941Z,101979.97
2023-04-16T07:47:23.028Z,101983.44
2023-04-16T07:49:50.574Z,101985.16
2023-04-16T07:52:16.924Z,101985.19
2023-04-16T07:54:43.327Z,101988.63
2023-04-16T07:57:09.709Z,101986.84
2023-04-16T07:59:36.158Z,101984.16
2023-04-16T08:02:02.628Z,101987.59
2023-04-16T08:04:29.239Z,101988.50
2023-04-16T08:06:56.056Z,101997.28
2023-04-16T08:09:23.941Z,101991.25
2023-04-16T08:11:50.759Z,101995.53
2023-04-16T08:14:17.679Z,102005.88
2023-04-16T08:16:44.173Z,102001.44
2023-04-16T08:19:10.875Z,102001.41
2023-04-16T08:21:37.638Z,102003.22
2023-04-16T08:24:04.125Z,102011.16
2023-04-16T08:26:32.763Z,102013.75
2023-04-16T08:28:59.187Z,102008.66
2023-04-16T08:31:25.825Z,102017.44
2023-04-16T08:33:53.412Z,102022.63
2023-04-16T08:36:19.791Z,102024.38
2023-04-16T08:38:46.255Z,102026.91
2023-04-16T08:41:13.460Z,102021.63
2023-04-16T08:43:44.526Z,102028.50
2023-04-16T08:46:12.213Z,102027.59
2023-04-16T08:48:41.762Z,102033.59
2023-04-16T08:51:13.861Z,102036.97
2023-04-16T08:53:52.933Z,102041.28
2023-04-16T08:56:23.796Z,102037.78
2023-04-16T08:58:51.569Z,102035.94
2023-04-16T09:01:19.539Z,102029.94
2023-04-16T09:03:48.280Z,102029.97
2023-04-16T09:06:19.131Z,102034.25
2023-04-16T09:08:46.281Z,102035.25
2023-04-16T09:11:17.932Z,102038.78
2023-04-16T09:13:45.914Z,102034.38
2023-04-16T09:16:13.303Z,102035.00
2023-04-16T09:18:39.884Z,102036.31
2023-04-16T09:21:08.441Z,102042.19
2023-04-16T09:23:35.413Z,102040.41
2023-04-16T09:26:02.272Z,102045.50
2023-04-16T09:28:46.771Z,102042.75
2023-04-16T09:31:14.962Z,102048.09
2023-04-16T09:33:42.872Z,102043.78
2023-04-16T09:36:09.988Z,102053.53
2023-04-16T09:38:46.735Z,102052.66
2023-04-16T09:41:13.765Z,102046.41
2023-04-16T09:43:40.238Z,102051.63
2023-04-16T09:46:12.536Z,102057.63
2023-04-16T09:48:38.952Z,102073.50
2023-04-16T09:51:06.950Z,102068.44
2023-04-16T09:53:33.388Z,102070.31
2023-04-16T09:56:01.943Z,102078.31
2023-04-16T09:58:29.145Z,102074.81
2023-04-16T10:01:17.909Z,102075.72
2023-04-16T10:03:49.891Z,102079.25
2023-04-16T10:06:20.525Z,102079.16
2023-04-16T10:08:51.665Z,102084.34
2023-04-16T10:11:19.784Z,102076.47
2023-04-16T10:13:46.400Z,102081.72
2023-04-16T10:16:13.307Z,102086.91
2023-04-16T10:18:44.406Z,102084.91
2023-04-16T10:21:12.607Z,102079.50
2023-04-16T10:23:39.989Z,102085.69
2023-04-16T10:26:06.459Z,102084.75
2023-04-16T10:28:35.306Z,102091.78
2023-04-16T10:31:03.960Z,102088.41
2023-04-16T10:33:32.652Z,102090.16
2023-04-16T10:36:08.417Z,102090.88
2023-04-16T10:38:35.403Z,102098.66
2023-04-16T10:41:03.529Z,102098.81
2023-04-16T10:43:44.269Z,102098.00
2023-04-16T10:46:30.236Z,102098.94
2023-04-16T10:49:01.295Z,102104.00
2023-04-16T10:51:32.185Z,102112.63
2023-04-16T10:54:03.041Z,102112.78
2023-04-16T10:56:32.527Z,102115.44
2023-04-16T10:58:58.938Z,102109.34
2023-04-16T11:01:33.901Z,102101.56
2023-04-16T11:04:21.444Z,102107.66
2023-04-16T11:07:16.980Z,102110.28
2023-04-16T11:09:56.096Z,102108.69
2023-04-16T11:12:27.161Z,102116.56
2023-04-16T11:14:57.935Z,102120.97
2023-04-16T11:17:29.349Z,102119.28
2023-04-16T11:19:56.354Z,102117.50
2023-04-16T11:22:22.816Z,102119.25
2023-04-16T11:24:55.281Z,102116.53
2023-04-16T11:27:22.647Z,102125.22
2023-04-16T11:30:00.584Z,102123.59
2023-04-16T11:32:27.119Z,102134.16
2023-04-16T11:34:53.660Z,102132.50
2023-04-16T11:37:36.671Z,102128.16
2023-04-16T11:40:08.216Z,102124.72
2023-04-16T11:42:40.324Z,102126.38
2023-04-16T11:45:08.311Z,102134.19
2023-04-16T11:47:46.494Z,102132.44
2023-04-16T11:50:21.447Z,102135.13
2023-04-16T11:52:48.619Z,102127.34
2023-04-16T11:55:15.544Z,102137.69
2023-04-16T11:57:42.157Z,102139.53
2023-04-16T12:00:13.826Z,102138.66
2023-04-16T12:02:45.933Z,102140.28
2023-04-16T12:05:34.394Z,102140.19
2023-04-16T12:08:02.546Z,102148.16
2023-04-16T12:10:30.131Z,102144.69
2023-04-16T12:13:17.371Z,102149.13
2023-04-16T12:15:49.228Z,102138.56
2023-04-16T12:18:16.651Z,102148.13
2023-04-16T12:20:44.161Z,102156.94
2023-04-16T12:23:11.387Z,102155.16
2023-04-16T12:25:37.757Z,102153.38
2023-04-16T12:28:04.490Z,102152.34
2023-04-16T12:30:31.205Z,102159.22
2023-04-16T12:33:17.309Z,102151.22
2023-04-16T12:35:44.825Z,102152.03
2023-04-16T12:38:11.865Z,102156.38
2023-04-16T12:40:38.462Z,102156.41
2023-04-16T12:43:04.964Z,102155.56
2023-04-16T12:45:31.308Z,102151.16
2023-04-16T12:47:57.932Z,102144.25
2023-04-16T12:50:24.547Z,102152.16
2023-04-16T12:52:50.970Z,102153.03
2023-04-16T12:55:17.460Z,102157.41
2023-04-16T12:57:44.443Z,102152.22
2023-04-16T13:00:11.228Z,102148.84
2023-04-16T13:02:37.884Z,102159.25
2023-04-16T13:05:04.761Z,102149.66
2023-04-16T13:07:32.259Z,102155.78
2023-04-16T13:09:59.293Z,102161.94
2023-04-16T13:12:27.175Z,102162.06
2023-04-16T13:14:54.233Z,102161.09
2023-04-16T13:17:20.652Z,102163.78
2023-04-16T13:19:47.038Z,102173.47
2023-04-16T13:22:13.552Z,102166.59
2023-04-16T13:24:39.933Z,102167.47
2023-04-16T13:27:08.248Z,102177.91
2023-04-16T13:29:36.618Z,102174.44
2023-04-16T13:32:03.569Z,102172.72
2023-04-16T13:34:30.144Z,102177.94
2023-04-16T13:36:56.499Z,102174.53
2023-04-16T13:39:22.845Z,102176.19
2023-04-16T13:41:50.119Z,102177.06
2023-04-16T13:44:16.598Z,102164.91
2023-04-16T13:46:47.810Z,102165.88
2023-04-16T13:49:14.889Z,102165.78
2023-04-16T13:51:44.533Z,102171.00
2023-04-16T13:54:14.891Z,102160.50
2023-04-16T13:56:41.418Z,102162.19
2023-04-16T13:59:08.066Z,102168.16
2023-04-16T14:01:34.598Z,102164.59
2023-04-16T14:04:05.942Z,102161.91
2023-04-16T14:06:33.657Z,102165.41
2023-04-16T14:09:00.305Z,102165.41
2023-04-16T14:11:28.647Z,102167.97
2023-04-16T14:13:55.579Z,102163.66
2023-04-16T14:16:22.091Z,102172.50
2023-04-16T14:18:48.522Z,102167.28
2023-04-16T14:21:14.903Z,102175.13
2023-04-16T14:23:41.391Z,102176.78
2023-04-16T14:26:08.254Z,102168.06
2023-04-16T14:28:35.594Z,102166.47
2023-04-16T14:31:02.004Z,102170.00
2023-04-16T14:33:28.378Z,102170.00
2023-04-16T14:35:54.811Z,102172.53
2023-04-16T14:38:21.222Z,102172.59
2023-04-16T14:40:48.300Z,102166.50
2023-04-16T14:43:14.871Z,102175.38
2023-04-16T14:45:41.680Z,102176.19
2023-04-16T14:48:08.117Z,102170.81
2023-04-16T14:50:38.850Z,102168.97
2023-04-16T14:53:05.858Z,102173.25
2023-04-16T14:55:32.501Z,102178.44
2023-04-16T14:57:59.595Z,102183.66
2023-04-16T15:00:26.226Z,102186.25
2023-04-16T15:02:53.626Z,102181.88
2023-04-16T15:05:20.315Z,102181.81
2023-04-16T15:07:46.732Z,102182.69
2023-04-16T15:10:13.287Z,102183.53
2023-04-16T15:12:39.686Z,102178.38
2023-04-16T15:15:09.657Z,102188.03
2023-04-16T15:17:36.374Z,102181.84
2023-04-16T15:20:05.752Z,102181.81
2023-04-16T15:22:32.135Z,102178.38
2023-04-16T15:24:58.504Z,102183.56
2023-04-16T15:27:24.911Z,102192.28
2023-04-16T15:29:53.145Z,102181.81
2023-04-16T15:32:19.655Z,102186.38
2023-04-16T15:34:46.521Z,102190.72
2023-04-16T15:37:13.138Z,102190.66
2023-04-16T15:39:39.593Z,102190.75
2023-04-16T15:42:07.425Z,102188.06
2023-04-16T15:44:34.712Z,102196.81
2023-04-16T15:47:01.674Z,102192.41
2023-04-16T15:49:28.096Z,102191.53
2023-04-16T15:51:55.467Z,102199.41
2023-04-16T15:54:21.903Z,102195.06
2023-04-16T15:56:48.297Z,102190.75
2023-04-16T15:59:14.690Z,102202.09
2023-04-16T16:01:41.097Z,102196.84
2023-04-16T16:04:08.203Z,102200.38
2023-04-16T16:06:34.944Z,102204.84
2023-04-16T16:09:01.668Z,102206.63
2023-04-16T16:11:28.511Z,102202.25
2023-04-16T16:13:55.377Z,102203.97
2023-04-16T16:16:22.004Z,102205.78
2023-04-16T16:18:48.639Z,102210.22
2023-04-16T16:21:15.065Z,102205.88
2023-04-16T16:23:41.456Z,102208.50
2023-04-16T16:26:07.928Z,102207.56
2023-04-16T16:28:37.472Z,102207.63
2023-04-16T16:31:05.712Z,102204.13
2023-04-16T16:33:32.132Z,102207.63
2023-04-16T16:35:58.620Z,102209.38
2023-04-16T16:38:24.974Z,102209.38
2023-04-16T16:40:51.326Z,102209.38
2023-04-16T16:43:17.745Z,102217.16
2023-04-16T16:45:44.174Z,102212.81
2023-04-16T16:48:10.649Z,102213.75
2023-04-16T16:50:37.043Z,102205.88
2023-04-16T16:53:03.547Z,102212.88
2023-04-16T16:55:31.195Z,102216.31
2023-04-16T16:57:58.343Z,102212.81
2023-04-16T17:00:24.859Z,102213.75
2023-04-16T17:02:51.959Z,102209.38
2023-04-16T17:05:18.662Z,102221.56
2023-04-16T17:07:45.701Z,102222.47
2023-04-16T17:10:15.712Z,102225.94
2023-04-16T17:12:42.407Z,102221.66
2023-04-16T17:15:09.540Z,102226.91
2023-04-16T17:17:35.969Z,102235.66
2023-04-16T17:20:08.154Z,102237.38
2023-04-16T17:22:34.865Z,102241.78
2023-04-16T17:25:01.649Z,102242.63
2023-04-16T17:27:29.338Z,102240.00
2023-04-16T17:30:00.004Z,102244.34
2023-04-16T17:32:26.695Z,102253.94
2023-04-16T17:34:55.381Z,102252.19
2023-04-16T17:37:22.592Z,102257.50
2023-04-16T17:39:49.443Z,102258.34
2023-04-16T17:42:16.036Z,102257.50
2023-04-16T17:44:42.426Z,102264.47
2023-04-16T17:47:08.976Z,102266.28
2023-04-16T17:49:35.476Z,102259.28
2023-04-16T17:52:02.040Z,102262.78
2023-04-16T17:54:28.432Z,102270.69
2023-04-16T17:56:54.824Z,102265.44
2023-04-16T17:59:21.739Z,102271.56
2023-04-16T18:01:49.474Z,102271.53
2023-04-16T18:04:16.479Z,102276.78
2023-04-16T18:06:43.254Z,102280.28
2023-04-16T18:09:09.628Z,102286.44
2023-04-16T18:11:36.179Z,102285.53
2023-04-16T18:14:02.584Z,102289.09
2023-04-16T18:16:29.030Z,102288.22
2023-04-16T18:18:55.497Z,102289.09
2023-04-16T18:21:21.989Z,102294.34
2023-04-16T18:23:48.373Z,102290.84
2023-04-16T18:26:18.410Z,102303.94
2023-04-16T18:28:47.210Z,102303.94
2023-04-16T18:31:13.836Z,102300.44
2023-04-16T18:33:55.711Z,102303.94
2023-04-16T18:36:24.258Z,102303.09
2023-04-16T18:39:00.974Z,102312.69
2023-04-16T18:41:29.554Z,102307.47
2023-04-16T18:43:56.045Z,102312.72
2023-04-16T18:46:22.499Z,102318.78
2023-04-16T18:48:48.905Z,102324.91
2023-04-16T18:51:19.449Z,102324.03
2023-04-16T18:53:52.237Z,102322.28
2023-04-16T18:56:18.664Z,102329.25
2023-04-16T18:58:45.042Z,102331.84
2023-04-16T19:01:13.399Z,102337.13
2023-04-16T19:03:40.050Z,102338.84
2023-04-16T19:06:06.489Z,102347.56
2023-04-16T19:08:32.998Z,102350.19
2023-04-16T19:10:59.499Z,102351.94
2023-04-16T19:13:26.007Z,102353.66
2023-04-16T19:16:00.833Z,102351.06
2023-04-16T19:18:28.055Z,102349.31
2023-04-16T19:21:01.170Z,102358.06
2023-04-16T19:23:28.146Z,102355.41
2023-04-16T19:25:57.740Z,102358.03
2023-04-16T19:28:24.631Z,102356.31
2023-04-16T19:30:52.254Z,102369.38
2023-04-16T19:33:18.968Z,102365.94
2023-04-16T19:35:46.139Z,102373.78
2023-04-16T19:38:12.508Z,102364.19
2023-04-16T19:40:38.971Z,102363.31
2023-04-16T19:43:05.592Z,102376.41
2023-04-16T19:45:32.068Z,102372.94
2023-04-16T19:47:58.869Z,102377.31
2023-04-16T19:50:25.265Z,102374.69
2023-04-16T19:52:51.925Z,102370.34
2023-04-16T19:55:18.902Z,102372.91
2023-04-16T19:57:48.035Z,102372.06
2023-04-16T20:00:14.850Z,102378.16
2023-04-16T20:02:41.424Z,102378.16
2023-04-16T20:05:08.484Z,102367.72
2023-04-16T20:07:34.918Z,102373.81
2023-04-16T20:10:02.674Z,102368.56
2023-04-16T20:12:29.055Z,102368.59
2023-04-16T20:14:55.641Z,102372.94
2023-04-16T20:17:22.236Z,102373.88
2023-04-16T20:19:49.396Z,102373.84
2023-04-16T20:22:18.171Z,102377.31
2023-04-16T20:24:47.879Z,102372.97
2023-04-16T20:27:14.971Z,102381.69
2023-04-16T20:29:41.917Z,102381.72
2023-04-16T20:32:08.444Z,102381.72
2023-04-16T20:34:34.928Z,102387.84
2023-04-16T20:37:01.364Z,102379.97
2023-04-16T20:39:34.575Z,102386.09
2023-04-16T20:42:04.149Z,102385.22
2023-04-16T20:44:40.102Z,102386.09
2023-04-16T20:47:15.161Z,102393.06
2023-04-16T20:49:48.200Z,102387.84
2023-04-16T20:52:17.669Z,102390.50
2023-04-16T20:54:44.397Z,102393.97
2023-04-16T20:57:11.033Z,102388.75
2023-04-16T20:59:37.426Z,102392.22
2023-04-16T21:02:04.368Z,102393.09
2023-04-16T21:04:31.024Z,102397.44
2023-04-16T21:06:57.518Z,102393.09
2023-04-16T21:09:24.163Z,102395.72
2023-04-16T21:11:50.652Z,102404.44
2023-04-16T21:14:17.023Z,102393.97
2023-04-16T21:16:43.428Z,102400.06
2023-04-16T21:19:10.046Z,102398.31
2023-04-16T21:21:38.159Z,102406.16
2023-04-16T21:24:04.677Z,102402.69
2023-04-16T21:26:31.037Z,102403.56
2023-04-16T21:28:57.421Z,102400.09
2023-04-16T21:31:24.120Z,102405.31
2023-04-16T21:33:50.682Z,102408.78
2023-04-16T21:36:17.129Z,102397.47
2023-04-16T21:38:43.550Z,102401.81
2023-04-16T21:41:10.014Z,102400.06
2023-04-16T21:43:36.365Z,102396.59
2023-04-16T21:46:02.929Z,102395.72
2023-04-16T21:48:29.431Z,102399.22
2023-04-16T21:51:00.973Z,102391.38
2023-04-16T21:53:31.987Z,102396.63
2023-04-16T21:55:58.600Z,102394.88
2023-04-16T21:58:28.164Z,102391.38
2023-04-16T22:00:54.628Z,102387.88
2023-04-16T22:03:27.676Z,102389.66
2023-04-16T22:06:00.603Z,102387.88
2023-04-16T22:08:30.879Z,102394.00
2023-04-16T22:11:01.927Z,102394.00
2023-04-16T22:13:32.240Z,102394.88
2023-04-16T22:16:02.505Z,102397.50
2023-04-16T22:18:32.620Z,102397.47
2023-04-16T22:20:59.892Z,102403.59
2023-04-16T22:23:26.307Z,102403.59
2023-04-16T22:25:54.770Z,102408.81
2023-04-16T22:28:21.786Z,102403.63
2023-04-16T22:30:48.325Z,102406.22
2023-04-16T22:33:14.742Z,102411.47
2023-04-16T22:35:41.328Z,102406.22
2023-04-16T22:38:07.733Z,102413.19
2023-04-16T22:40:34.091Z,102414.94
2023-04-16T22:43:00.529Z,102415.81
2023-04-16T22:45:27.289Z,102407.13
2023-04-16T22:47:53.802Z,102419.28
2023-04-16T22:50:20.634Z,102420.16
2023-04-16T22:52:47.088Z,102414.06
2023-04-16T22:55:13.428Z,102414.09
2023-04-16T22:57:39.807Z,102410.59
2023-04-16T23:00:09.666Z,102412.31
2023-04-16T23:02:36.287Z,102407.97
2023-04-16T23:05:03.010Z,102414.94
2023-04-16T23:07:29.420Z,102414.09
2023-04-16T23:09:55.804Z,102407.09
2023-04-16T23:12:22.152Z,102413.19
2023-04-16T23:14:48.550Z,102403.63
2023-04-16T23:17:14.927Z,102410.59
2023-04-16T23:19:41.802Z,102400.16
2023-04-16T23:22:08.187Z,102404.47
2023-04-16T23:24:34.610Z,102407.09
2023-04-16T23:27:01.345Z,102410.59
2023-04-16T23:29:27.777Z,102403.63
2023-04-16T23:31:54.185Z,102407.97
2023-04-16T23:34:20.546Z,102407.97
2023-04-16T23:36:46.960Z,102407.97
2023-04-16T23:39:13.504Z,102404.47
2023-04-16T23:41:40.294Z,102395.78
2023-04-16T23:44:06.652Z,102396.66
2023-04-16T23:46:33.037Z,102393.16
2023-04-16T23:48:59.403Z,102403.63
2023-04-16T23:51:26.507Z,102399.28
2023-04-16T23:53:52.849Z,102412.34
2023-04-16T23:56:19.211Z,102406.22
2023-04-16T23:58:45.747Z,102402.75
